createdAt,value
2016-09-11T16:44:26.792Z,1013.74
2016-09-11T16:45:37.984Z,1013.72
2016-09-11T16:46:49.227Z,1013.71
2016-09-11T16:48:00.600Z,1013.71
2016-09-11T16:49:12.053Z,1013.73
2016-09-11T16:50:23.078Z,1013.73
2016-09-11T16:51:34.366Z,1013.72
2016-09-11T16:52:45.585Z,1013.75
2016-09-11T16:53:56.623Z,1013.75
2016-09-11T16:55:07.912Z,1013.74
2016-09-11T16:56:19.003Z,1013.76
2016-09-11T16:57:30.252Z,1013.77
2016-09-11T16:58:41.522Z,1013.75
2016-09-11T16:59:52.543Z,1013.68
2016-09-11T17:01:03.987Z,1013.67
2016-09-11T17:02:15.105Z,1013.7
2016-09-11T17:03:26.141Z,1013.68
2016-09-11T17:04:37.219Z,1013.67
2016-09-11T17:05:48.256Z,1013.69
2016-09-11T17:06:59.324Z,1013.7
2016-09-11T17:08:10.415Z,1013.7
2016-09-11T17:09:21.496Z,1013.69
2016-09-11T17:10:32.596Z,1013.69
2016-09-11T17:11:43.825Z,1013.67
2016-09-11T17:12:54.845Z,1013.64
2016-09-11T17:14:05.904Z,1013.65
2016-09-11T17:15:16.959Z,1013.67
2016-09-11T17:16:28.265Z,1013.65
2016-09-11T17:17:39.555Z,1013.59
2016-09-11T17:18:50.683Z,1013.59
2016-09-11T17:20:02.543Z,1013.61
2016-09-11T17:21:13.681Z,1013.6
2016-09-11T17:22:24.772Z,1013.59
2016-09-11T17:23:36.130Z,1013.6
2016-09-11T17:24:47.225Z,1013.6
2016-09-11T17:25:58.252Z,1013.61
2016-09-11T17:27:09.401Z,1013.6
2016-09-11T17:28:20.663Z,1013.64
2016-09-11T17:29:31.683Z,1013.6
2016-09-11T17:30:42.756Z,1013.67
2016-09-11T17:31:53.994Z,1013.63
2016-09-11T17:33:05.523Z,1013.65
2016-09-11T17:34:16.601Z,1013.68
2016-09-11T17:35:27.842Z,1013.66
2016-09-11T17:36:39.059Z,1013.71
2016-09-11T17:37:50.078Z,1013.68
2016-09-11T17:39:01.137Z,1013.71
2016-09-11T17:40:12.376Z,1013.69
2016-09-11T17:41:23.408Z,1013.72
2016-09-11T17:42:34.454Z,1013.72
2016-09-11T17:43:45.476Z,1013.74
2016-09-11T17:44:56.490Z,1013.73
2016-09-11T17:46:08.133Z,1013.77
2016-09-11T17:47:19.372Z,1013.77
2016-09-11T17:48:30.417Z,1013.78
2016-09-11T17:49:41.475Z,1013.8
2016-09-11T17:50:52.500Z,1013.78
2016-09-11T17:52:03.538Z,1013.78
2016-09-11T17:53:14.881Z,1013.8
2016-09-11T17:54:26.694Z,1013.78
2016-09-11T17:55:37.729Z,1013.79
2016-09-11T17:56:48.806Z,1013.83
2016-09-11T17:57:59.848Z,1013.8
2016-09-11T17:59:10.926Z,1013.81
2016-09-11T18:00:22.275Z,1013.8
2016-09-11T18:01:33.305Z,1013.79
2016-09-11T18:02:44.537Z,1013.8
2016-09-11T18:03:55.666Z,1013.78
2016-09-11T18:05:07.047Z,1013.78
2016-09-11T18:06:18.062Z,1013.78
2016-09-11T18:07:29.102Z,1013.79
2016-09-11T18:08:40.110Z,1013.82
2016-09-11T18:09:51.194Z,1013.82
2016-09-11T18:11:02.368Z,1013.87
2016-09-11T18:12:13.468Z,1013.83
2016-09-11T18:13:24.534Z,1013.91
2016-09-11T18:14:35.559Z,1013.92
2016-09-11T18:15:46.581Z,1013.93
2016-09-11T18:16:57.628Z,1013.94
2016-09-11T18:18:08.899Z,1013.92
2016-09-11T18:19:20.349Z,1013.97
2016-09-11T18:20:31.521Z,1013.98
2016-09-11T18:21:42.668Z,1013.9
2016-09-11T18:22:53.904Z,1013.93
2016-09-11T18:24:05.002Z,1013.94
2016-09-11T18:25:16.159Z,1013.97
2016-09-11T18:26:27.305Z,1013.97
2016-09-11T18:27:38.907Z,1013.92
2016-09-11T18:28:50.014Z,1013.91
2016-09-11T18:30:01.339Z,1013.96
2016-09-11T18:31:13.393Z,1013.95
2016-09-11T18:32:24.430Z,1013.95
2016-09-11T18:33:35.480Z,1013.95
2016-09-11T18:34:46.576Z,1013.94
2016-09-11T18:35:57.627Z,1013.98
2016-09-11T18:37:09.090Z,1013.94
2016-09-11T18:38:20.430Z,1013.97
2016-09-11T18:39:31.779Z,1013.96
2016-09-11T18:40:42.884Z,1013.96
2016-09-11T18:41:53.951Z,1013.96
2016-09-11T18:43:04.996Z,1013.95
2016-09-11T18:44:16.036Z,1013.96
2016-09-11T18:45:27.054Z,1013.98
2016-09-11T18:46:38.068Z,1014
2016-09-11T18:47:49.081Z,1014.05
2016-09-11T18:49:00.512Z,1014.07
2016-09-11T18:50:11.967Z,1014.08
2016-09-11T18:51:23.002Z,1014.15
2016-09-11T18:52:34.251Z,1014.15
2016-09-11T18:53:45.474Z,1014.14
2016-09-11T18:54:56.505Z,1014.1
2016-09-11T18:56:07.823Z,1014.13
2016-09-11T18:57:18.889Z,1014.16
2016-09-11T18:58:30.146Z,1014.13
2016-09-11T18:59:41.191Z,1014.18
2016-09-11T19:00:52.287Z,1014.17
2016-09-11T19:02:03.556Z,1014.17
2016-09-11T19:03:16.651Z,1014.22
2016-09-11T19:04:27.761Z,1014.25
2016-09-11T19:05:38.826Z,1014.24
2016-09-11T19:06:49.932Z,1014.2
2016-09-11T19:08:01.208Z,1014.2
2016-09-11T19:09:12.530Z,1014.2
2016-09-11T19:10:23.766Z,1014.23
2016-09-11T19:11:35.139Z,1014.23
2016-09-11T19:12:46.182Z,1014.23
2016-09-11T19:13:57.327Z,1014.22
2016-09-11T19:15:08.604Z,1014.25
2016-09-11T19:16:19.682Z,1014.23
2016-09-11T19:17:30.740Z,1014.27
2016-09-11T19:18:41.967Z,1014.27
2016-09-11T19:19:53.007Z,1014.28
2016-09-11T19:21:04.137Z,1014.24
2016-09-11T19:22:15.166Z,1014.29
2016-09-11T19:23:26.340Z,1014.26
2016-09-11T19:24:37.374Z,1014.24
2016-09-11T19:25:48.538Z,1014.22
2016-09-11T19:26:59.555Z,1014.25
2016-09-11T19:28:10.617Z,1014.25
2016-09-11T19:29:21.668Z,1014.27
2016-09-11T19:30:32.695Z,1014.24
2016-09-11T19:31:43.711Z,1014.28
2016-09-11T19:32:54.745Z,1014.3
2016-09-11T19:34:05.868Z,1014.3
2016-09-11T19:35:16.927Z,1014.27
2016-09-11T19:36:28.075Z,1014.28
2016-09-11T19:37:39.327Z,1014.31
2016-09-11T19:38:50.621Z,1014.33
2016-09-11T19:40:01.970Z,1014.34
2016-09-11T19:41:13.514Z,1014.34
2016-09-11T19:42:24.533Z,1014.36
2016-09-11T19:43:35.572Z,1014.35
2016-09-11T19:44:46.627Z,1014.4
2016-09-11T19:45:57.719Z,1014.4
2016-09-11T19:47:08.805Z,1014.43
2016-09-11T19:48:20.405Z,1014.43
2016-09-11T19:49:31.527Z,1014.46
2016-09-11T19:50:42.564Z,1014.45
2016-09-11T19:51:54.167Z,1014.47
2016-09-11T19:53:05.410Z,1014.45
2016-09-11T19:54:16.526Z,1014.43
2016-09-11T19:55:27.621Z,1014.47
2016-09-11T19:56:38.886Z,1014.47
2016-09-11T19:57:49.923Z,1014.46
2016-09-11T19:59:01.017Z,1014.47
2016-09-11T20:00:12.337Z,1014.45
2016-09-11T20:01:23.599Z,1014.45
2016-09-11T20:02:34.761Z,1014.46
2016-09-11T20:03:45.807Z,1014.44
2016-09-11T20:04:56.838Z,1014.45
2016-09-11T20:06:08.398Z,1014.47
2016-09-11T20:07:19.447Z,1014.44
2016-09-11T20:08:30.493Z,1014.45
2016-09-11T20:09:41.704Z,1014.46
2016-09-11T20:10:52.735Z,1014.48
2016-09-11T20:12:03.986Z,1014.52
2016-09-11T20:13:15.137Z,1014.51
2016-09-11T20:14:26.305Z,1014.48
2016-09-11T20:15:37.505Z,1014.49
2016-09-11T20:16:48.558Z,1014.48
2016-09-11T20:17:59.787Z,1014.47
2016-09-11T20:19:11.030Z,1014.47
2016-09-11T20:20:22.303Z,1014.49
2016-09-11T20:21:34.032Z,1014.47
2016-09-11T20:22:45.049Z,1014.47
2016-09-11T20:23:56.079Z,1014.46
2016-09-11T20:25:07.394Z,1014.44
2016-09-11T20:26:18.478Z,1014.43
2016-09-11T20:27:29.530Z,1014.42
2016-09-11T20:28:40.534Z,1014.45
2016-09-11T20:29:51.657Z,1014.43
2016-09-11T20:31:03.489Z,1014.44
2016-09-11T20:32:14.891Z,1014.44
2016-09-11T20:33:25.943Z,1014.4
2016-09-11T20:34:37.033Z,1014.39
2016-09-11T20:35:48.069Z,1014.4
2016-09-11T20:36:59.082Z,1014.42
2016-09-11T20:38:10.376Z,1014.43
2016-09-11T20:39:21.441Z,1014.46
2016-09-11T20:40:32.508Z,1014.44
2016-09-11T20:41:43.834Z,1014.41
2016-09-11T20:42:54.855Z,1014.44
2016-09-11T20:44:06.033Z,1014.41
2016-09-11T20:45:17.103Z,1014.39
2016-09-11T20:46:28.418Z,1014.39
2016-09-11T20:47:39.453Z,1014.39
2016-09-11T20:48:50.463Z,1014.4
2016-09-11T20:50:01.494Z,1014.37
2016-09-11T20:51:12.696Z,1014.39
2016-09-11T20:52:23.731Z,1014.37
2016-09-11T20:53:34.839Z,1014.38
2016-09-11T20:54:45.867Z,1014.37
2016-09-11T20:55:56.873Z,1014.31
2016-09-11T20:57:07.933Z,1014.34
2016-09-11T20:58:18.946Z,1014.36
2016-09-11T20:59:29.959Z,1014.34
2016-09-11T21:00:40.991Z,1014.37
2016-09-11T21:01:52.206Z,1014.34
2016-09-11T21:03:03.414Z,1014.35
2016-09-11T21:04:14.659Z,1014.38
2016-09-11T21:05:25.715Z,1014.31
2016-09-11T21:06:36.886Z,1014.33
2016-09-11T21:07:48.125Z,1014.31
2016-09-11T21:08:59.215Z,1014.32
2016-09-11T21:10:10.414Z,1014.31
2016-09-11T21:11:21.443Z,1014.31
2016-09-11T21:12:32.675Z,1014.35
2016-09-11T21:13:43.710Z,1014.32
2016-09-11T21:14:54.752Z,1014.3
2016-09-11T21:16:08.121Z,1014.34
2016-09-11T21:17:20.469Z,1014.34
2016-09-11T21:18:31.719Z,1014.36
2016-09-11T21:19:42.985Z,1014.34
2016-09-11T21:20:54.364Z,1014.37
2016-09-11T21:22:05.571Z,1014.38
2016-09-11T21:23:16.661Z,1014.35
2016-09-11T21:24:27.684Z,1014.39
2016-09-11T21:25:39.545Z,1014.39
2016-09-11T21:26:50.838Z,1014.41
2016-09-11T21:28:02.146Z,1014.42
2016-09-11T21:29:13.199Z,1014.4
2016-09-11T21:30:24.509Z,1014.46
2016-09-11T21:31:35.572Z,1014.45
2016-09-11T21:32:46.612Z,1014.48
2016-09-11T21:33:57.736Z,1014.48
2016-09-11T21:35:08.872Z,1014.47
2016-09-11T21:36:19.885Z,1014.45
2016-09-11T21:37:31.004Z,1014.45
2016-09-11T21:38:42.048Z,1014.46
2016-09-11T21:39:53.088Z,1014.41
2016-09-11T21:41:04.745Z,1014.46
2016-09-11T21:42:16.120Z,1014.37
2016-09-11T21:43:27.145Z,1014.41
2016-09-11T21:44:38.355Z,1014.39
2016-09-11T21:45:49.409Z,1014.41
2016-09-11T21:47:00.643Z,1014.42
2016-09-11T21:48:11.768Z,1014.37
2016-09-11T21:49:22.840Z,1014.39
2016-09-11T21:50:33.941Z,1014.36
2016-09-11T21:51:44.969Z,1014.35
2016-09-11T21:52:56.110Z,1014.39
2016-09-11T21:54:07.289Z,1014.39
2016-09-11T21:55:18.298Z,1014.36
2016-09-11T21:56:29.353Z,1014.35
2016-09-11T21:57:40.420Z,1014.31
2016-09-11T21:58:51.480Z,1014.31
2016-09-11T22:00:03.168Z,1014.32
2016-09-11T22:01:14.452Z,1014.3
2016-09-11T22:02:25.496Z,1014.29
2016-09-11T22:03:36.518Z,1014.29
2016-09-11T22:04:47.616Z,1014.3
2016-09-11T22:05:58.642Z,1014.31
2016-09-11T22:07:09.763Z,1014.27
2016-09-11T22:08:20.834Z,1014.26
2016-09-11T22:09:31.932Z,1014.28
2016-09-11T22:10:43.275Z,1014.26
2016-09-11T22:11:54.767Z,1014.25
2016-09-11T22:13:06.202Z,1014.27
2016-09-11T22:14:17.332Z,1014.27
2016-09-11T22:15:28.351Z,1014.25
2016-09-11T22:16:39.513Z,1014.27
2016-09-11T22:17:50.728Z,1014.28
2016-09-11T22:19:01.848Z,1014.28
2016-09-11T22:20:13.052Z,1014.29
2016-09-11T22:21:24.093Z,1014.29
2016-09-11T22:22:35.191Z,1014.28
2016-09-11T22:23:46.210Z,1014.26
2016-09-11T22:24:57.271Z,1014.24
2016-09-11T22:26:08.946Z,1014.24
2016-09-11T22:27:20.017Z,1014.25
2016-09-11T22:28:31.102Z,1014.25
2016-09-11T22:29:42.121Z,1014.27
2016-09-11T22:33:36.828Z,1014.3
2016-09-11T22:34:48.148Z,1014.31
2016-09-11T22:35:59.447Z,1014.34
2016-09-11T22:37:10.985Z,1014.3
2016-09-11T22:38:22.628Z,1014.33
2016-09-11T22:39:33.758Z,1014.34
2016-09-11T22:40:44.784Z,1014.37
2016-09-11T22:41:55.815Z,1014.36
2016-09-11T22:43:06.888Z,1014.36
2016-09-11T22:44:18.125Z,1014.32
2016-09-11T22:45:29.570Z,1014.35
2016-09-11T22:46:40.648Z,1014.31
2016-09-11T22:47:51.751Z,1014.29
2016-09-11T22:49:03.142Z,1014.31
2016-09-11T22:50:14.131Z,1014.3
2016-09-11T22:51:25.203Z,1014.27
2016-09-11T22:52:36.281Z,1014.24
2016-09-11T22:53:47.331Z,1014.22
2016-09-11T22:54:58.423Z,1014.22
2016-09-11T22:56:09.594Z,1014.18
2016-09-11T22:57:20.845Z,1014.24
2016-09-11T22:58:31.871Z,1014.2
2016-09-11T22:59:42.869Z,1014.23
2016-09-11T23:00:53.895Z,1014.2
2016-09-11T23:02:05.139Z,1014.17
2016-09-11T23:03:16.151Z,1014.16
2016-09-11T23:04:27.200Z,1014.22
2016-09-11T23:05:38.277Z,1014.17
2016-09-11T23:06:49.291Z,1014.15
2016-09-11T23:08:00.432Z,1014.16
2016-09-11T23:09:11.774Z,1014.18
2016-09-11T23:10:22.898Z,1014.18
2016-09-11T23:11:33.907Z,1014.21
2016-09-11T23:12:45.115Z,1014.2
2016-09-11T23:13:56.143Z,1014.2
2016-09-11T23:15:07.214Z,1014.17
2016-09-11T23:16:18.452Z,1014.15
2016-09-11T23:17:29.468Z,1014.15
2016-09-11T23:18:40.476Z,1014.16
2016-09-11T23:19:51.517Z,1014.16
2016-09-11T23:21:03.412Z,1014.18
2016-09-11T23:22:14.440Z,1014.18
2016-09-11T23:23:25.478Z,1014.15
2016-09-11T23:24:36.528Z,1014.16
2016-09-11T23:25:47.685Z,1014.13
2016-09-11T23:26:58.903Z,1014.16
2016-09-11T23:28:10.142Z,1014.14
2016-09-11T23:29:21.194Z,1014.12
2016-09-11T23:30:32.241Z,1014.13
2016-09-11T23:31:43.309Z,1014.1
2016-09-11T23:32:54.556Z,1014.09
2016-09-11T23:34:06.207Z,1014.1
2016-09-11T23:35:17.241Z,1014.13
2016-09-11T23:36:28.467Z,1014.12
2016-09-11T23:37:39.543Z,1014.1
2016-09-11T23:38:50.778Z,1014.14
2016-09-11T23:40:01.984Z,1014.14
2016-09-11T23:41:13.115Z,1014.11
2016-09-11T23:42:24.161Z,1014.06
2016-09-11T23:43:35.184Z,1014.11
2016-09-11T23:44:46.247Z,1014.1
2016-09-11T23:45:57.329Z,1014.1
2016-09-11T23:47:08.431Z,1014.08
2016-09-11T23:48:19.571Z,1014.08
2016-09-11T23:49:30.693Z,1014.06
2016-09-11T23:50:41.743Z,1014.08
2016-09-11T23:51:52.765Z,1014.02
2016-09-11T23:53:03.826Z,1014.06
2016-09-11T23:54:14.932Z,1014.03
2016-09-11T23:55:26.173Z,1014.03
2016-09-11T23:56:37.223Z,1014.04
2016-09-11T23:57:48.255Z,1014.02
2016-09-11T23:58:59.266Z,1013.98
